createdAt,value
2022-10-09T00:01:10.105Z,9.00
2022-10-09T00:03:39.878Z,8.90
2022-10-09T00:06:08.993Z,8.90
2022-10-09T00:08:43.375Z,8.90
2022-10-09T00:11:14.800Z,8.80
2022-10-09T00:13:47.307Z,8.80
2022-10-09T00:16:16.938Z,8.80
2022-10-09T00:18:45.649Z,8.80
2022-10-09T00:21:29.067Z,8.80
2022-10-09T00:24:04.059Z,8.80
2022-10-09T00:26:32.304Z,8.70
2022-10-09T00:29:01.100Z,8.70
2022-10-09T00:31:33.172Z,8.70
2022-10-09T00:34:03.491Z,8.70
2022-10-09T00:36:30.895Z,8.70
2022-10-09T00:39:01.566Z,8.70
2022-10-09T00:41:34.065Z,8.70
2022-10-09T00:44:46.452Z,8.80
2022-10-09T00:47:40.250Z,8.80
2022-10-09T00:50:42.541Z,8.70
2022-10-09T00:53:13.874Z,8.70
2022-10-09T01:01:12.003Z,8.70
2022-10-09T01:03:40.551Z,8.70
2022-10-09T01:09:14.698Z,8.70
2022-10-09T01:11:47.605Z,8.70
2022-10-09T01:14:26.441Z,8.60
2022-10-09T01:17:10.829Z,8.60
2022-10-09T01:20:04.683Z,8.50
2022-10-09T01:22:51.179Z,8.40
2022-10-09T01:25:42.539Z,8.30
2022-10-09T01:28:18.202Z,8.30
2022-10-09T01:30:47.240Z,8.30
2022-10-09T01:33:16.643Z,8.30
2022-10-09T01:35:45.331Z,8.30
2022-10-09T01:38:12.692Z,8.30
2022-10-09T01:40:39.903Z,8.30
2022-10-09T01:43:07.139Z,8.20
2022-10-09T01:45:43.417Z,8.20
2022-10-09T01:48:15.456Z,8.20
2022-10-09T01:50:46.306Z,8.20
2022-10-09T01:53:19.468Z,8.20
2022-10-09T01:55:53.735Z,8.20
2022-10-09T01:58:27.987Z,8.10
2022-10-09T02:01:10.558Z,8.20
2022-10-09T02:03:40.963Z,8.10
2022-10-09T02:06:10.869Z,8.10
2022-10-09T02:08:39.529Z,8.10
2022-10-09T02:11:07.675Z,8.10
2022-10-09T02:13:36.043Z,8.10
2022-10-09T02:16:34.741Z,8.10
2022-10-09T02:19:19.894Z,8.00
2022-10-09T02:22:07.226Z,8.00
2022-10-09T02:24:36.947Z,8.00
2022-10-09T02:27:04.873Z,7.90
2022-10-09T02:29:32.345Z,7.80
2022-10-09T02:31:59.621Z,7.80
2022-10-09T02:34:26.891Z,7.80
2022-10-09T02:36:54.157Z,7.90
2022-10-09T02:39:21.300Z,7.80
2022-10-09T02:41:48.498Z,7.70
2022-10-09T02:44:15.771Z,7.70
2022-10-09T02:46:43.136Z,7.70
2022-10-09T02:49:10.380Z,7.70
2022-10-09T02:51:37.551Z,7.70
2022-10-09T02:54:05.675Z,7.70
2022-10-09T02:56:35.595Z,7.70
2022-10-09T02:59:06.301Z,7.70
2022-10-09T03:01:33.735Z,7.60
2022-10-09T03:04:00.958Z,7.60
2022-10-09T03:06:30.326Z,7.60
2022-10-09T03:08:58.296Z,7.60
2022-10-09T03:11:26.465Z,7.50
2022-10-09T03:13:54.899Z,7.50
2022-10-09T03:16:24.595Z,7.50
2022-10-09T03:18:53.803Z,7.50
2022-10-09T03:26:51.329Z,7.50
2022-10-09T03:29:22.291Z,7.50
2022-10-09T03:31:52.838Z,7.50
2022-10-09T03:34:20.818Z,7.50
2022-10-09T03:36:48.307Z,7.40
2022-10-09T03:39:15.474Z,7.40
2022-10-09T03:41:43.080Z,7.40
2022-10-09T03:44:10.281Z,7.40
2022-10-09T03:46:37.670Z,7.40
2022-10-09T03:49:12.849Z,7.40
2022-10-09T03:51:40.808Z,7.40
2022-10-09T03:54:08.909Z,7.30
2022-10-09T04:02:00.194Z,7.40
2022-10-09T04:07:09.395Z,7.30
2022-10-09T04:09:36.625Z,7.30
2022-10-09T04:12:03.970Z,7.30
2022-10-09T04:14:32.934Z,7.30
2022-10-09T04:17:00.266Z,7.30
2022-10-09T04:24:52.834Z,7.30
2022-10-09T04:27:20.273Z,7.20
2022-10-09T04:29:47.480Z,7.20
2022-10-09T04:32:14.538Z,7.20
2022-10-09T04:34:41.777Z,7.20
2022-10-09T04:37:08.959Z,7.20
2022-10-09T04:39:36.128Z,7.20
2022-10-09T04:42:03.316Z,7.10
2022-10-09T04:44:30.736Z,7.10
2022-10-09T04:46:57.971Z,7.10
2022-10-09T04:49:25.140Z,7.10
2022-10-09T04:51:52.242Z,7.10
2022-10-09T04:54:19.558Z,7.10
2022-10-09T04:56:46.836Z,7.10
2022-10-09T05:01:56.070Z,7.10
2022-10-09T05:12:28.211Z,7.10
2022-10-09T05:14:55.407Z,7.10
2022-10-09T05:17:23.819Z,7.10
2022-10-09T05:22:32.080Z,7.10
2022-10-09T05:24:59.909Z,7.10
2022-10-09T05:27:27.944Z,7.10
2022-10-09T05:32:43.910Z,7.10
2022-10-09T05:35:11.633Z,7.10
2022-10-09T05:37:38.850Z,7.10
2022-10-09T05:40:06.548Z,7.00
2022-10-09T05:42:33.662Z,7.10
2022-10-09T05:45:00.803Z,7.10
2022-10-09T05:47:30.688Z,7.10
2022-10-09T05:49:59.740Z,6.90
2022-10-09T05:52:27.228Z,7.00
2022-10-09T05:54:54.671Z,7.00
2022-10-09T05:57:21.766Z,7.00
2022-10-09T05:59:49.090Z,6.90
2022-10-09T06:02:16.345Z,6.90
2022-10-09T06:04:43.713Z,6.90
2022-10-09T06:07:11.439Z,6.90
2022-10-09T06:09:39.110Z,6.90
2022-10-09T06:12:06.536Z,6.90
2022-10-09T06:14:33.787Z,6.90
2022-10-09T06:17:01.846Z,7.00
2022-10-09T06:19:30.866Z,7.00
2022-10-09T06:21:58.084Z,7.00
2022-10-09T06:24:29.076Z,7.00
2022-10-09T06:26:58.271Z,7.00
2022-10-09T06:29:26.154Z,7.10
2022-10-09T06:37:19.992Z,7.10
2022-10-09T07:07:18.863Z,7.70
2022-10-09T07:17:54.074Z,8.00
2022-10-09T08:16:37.485Z,9.90
2022-10-09T08:30:35.062Z,10.40
2022-10-09T08:43:00.512Z,10.90
2022-10-09T08:45:36.187Z,11.00
2022-10-09T08:48:12.390Z,11.10
2022-10-09T08:50:50.131Z,11.20
2022-10-09T08:53:40.932Z,11.30
2022-10-09T08:58:58.156Z,11.50
2022-10-09T09:01:39.804Z,11.60
2022-10-09T09:04:30.735Z,11.70
2022-10-09T09:07:35.448Z,11.80
2022-10-09T09:10:14.381Z,11.90
2022-10-09T09:12:53.493Z,12.00
2022-10-09T09:15:28.413Z,12.10
2022-10-09T09:18:14.571Z,12.30
2022-10-09T09:21:04.383Z,12.40
2022-10-09T09:23:42.515Z,12.50
2022-10-09T09:26:17.597Z,12.60
2022-10-09T09:28:46.425Z,12.70
2022-10-09T09:31:42.880Z,12.80
2022-10-09T09:34:14.978Z,12.90
2022-10-09T09:37:01.029Z,13.00
2022-10-09T09:42:21.676Z,13.30
2022-10-09T09:45:13.158Z,13.40
2022-10-09T09:47:48.168Z,13.50
2022-10-09T09:50:42.360Z,13.60
2022-10-09T09:53:27.826Z,13.70
2022-10-09T09:55:58.350Z,13.80
2022-10-09T09:58:38.836Z,13.80
2022-10-09T10:01:07.686Z,13.80
2022-10-09T10:03:36.624Z,13.90
2022-10-09T10:06:05.285Z,13.90
2022-10-09T10:08:35.749Z,14.00
2022-10-09T10:11:07.119Z,14.00
2022-10-09T10:13:38.729Z,14.20
2022-10-09T10:16:11.518Z,14.20
2022-10-09T10:18:43.846Z,14.30
2022-10-09T10:21:17.035Z,14.40
2022-10-09T10:24:04.373Z,14.40
2022-10-09T10:26:41.492Z,14.50
2022-10-09T10:29:23.497Z,14.60
2022-10-09T10:31:53.221Z,14.80
2022-10-09T10:34:42.370Z,14.90
2022-10-09T10:37:16.185Z,14.90
2022-10-09T10:40:24.738Z,15.10
2022-10-09T10:43:10.814Z,15.20
2022-10-09T10:45:56.306Z,15.40
2022-10-09T10:48:34.407Z,15.40
2022-10-09T10:51:13.813Z,15.40
2022-10-09T10:54:00.950Z,15.40
2022-10-09T10:56:54.189Z,15.50
2022-10-09T10:59:28.187Z,15.60
2022-10-09T11:02:19.636Z,15.60
2022-10-09T11:04:54.386Z,15.60
2022-10-09T11:07:40.261Z,15.70
2022-10-09T11:10:36.721Z,15.80
2022-10-09T11:13:21.605Z,16.00
2022-10-09T11:16:21.314Z,16.00
2022-10-09T11:19:22.776Z,16.20
2022-10-09T11:22:21.113Z,16.20
2022-10-09T11:25:00.605Z,16.20
2022-10-09T11:27:51.999Z,16.30
2022-10-09T11:30:20.088Z,16.30
2022-10-09T11:33:12.612Z,16.40
2022-10-09T11:35:56.538Z,16.50
2022-10-09T11:38:37.497Z,16.60
2022-10-09T11:41:07.336Z,16.70
2022-10-09T11:43:49.934Z,16.70
2022-10-09T11:46:30.420Z,16.80
2022-10-09T11:49:11.921Z,16.90
2022-10-09T11:51:49.300Z,17.00
2022-10-09T11:54:23.297Z,17.10
2022-10-09T11:56:57.411Z,17.10
2022-10-09T11:59:30.371Z,17.30
2022-10-09T12:01:58.865Z,17.50
2022-10-09T12:04:50.516Z,17.40
2022-10-09T12:07:35.699Z,17.70
2022-10-09T12:10:10.476Z,17.50
2022-10-09T12:12:38.927Z,17.50
2022-10-09T12:16:01.182Z,17.50
2022-10-09T12:18:39.118Z,17.40
2022-10-09T12:21:26.572Z,17.70
2022-10-09T12:23:54.529Z,17.90
2022-10-09T12:26:26.305Z,17.80
2022-10-09T12:29:04.858Z,17.80
2022-10-09T12:31:41.920Z,17.80
2022-10-09T12:34:32.698Z,18.10
2022-10-09T12:37:35.263Z,18.30
2022-10-09T12:40:15.284Z,18.90
2022-10-09T12:42:44.217Z,18.70
2022-10-09T12:45:26.912Z,18.70
2022-10-09T12:47:54.562Z,19.10
2022-10-09T12:50:32.766Z,19.20
2022-10-09T12:53:08.085Z,19.20
2022-10-09T12:55:46.706Z,19.20
2022-10-09T12:58:21.567Z,19.70
2022-10-09T13:00:57.784Z,19.90
2022-10-09T13:03:43.820Z,20.30
2022-10-09T13:06:27.148Z,20.30
2022-10-09T13:09:07.078Z,20.30
2022-10-09T13:11:38.406Z,20.20
2022-10-09T13:14:06.683Z,20.00
2022-10-09T13:16:43.274Z,20.20
2022-10-09T13:19:28.922Z,20.00
2022-10-09T13:22:19.631Z,20.10
2022-10-09T13:24:49.795Z,20.00
2022-10-09T13:27:21.427Z,20.00
2022-10-09T13:29:48.858Z,20.00
2022-10-09T13:32:19.432Z,20.20
2022-10-09T13:34:47.603Z,20.40
2022-10-09T13:37:17.847Z,20.50
2022-10-09T13:39:45.288Z,21.10
2022-10-09T13:42:22.140Z,21.10
2022-10-09T13:44:49.889Z,21.20
2022-10-09T13:47:21.966Z,21.10
2022-10-09T13:49:51.900Z,21.70
2022-10-09T13:52:19.080Z,22.00
2022-10-09T13:54:46.324Z,21.90
2022-10-09T13:57:14.041Z,22.20
2022-10-09T13:59:41.630Z,22.20
2022-10-09T14:02:14.042Z,22.20
2022-10-09T14:04:44.109Z,22.30
2022-10-09T14:07:12.183Z,22.40
2022-10-09T14:09:39.613Z,22.10
2022-10-09T14:12:06.816Z,21.90
2022-10-09T14:14:34.086Z,22.00
2022-10-09T14:17:01.633Z,22.00
2022-10-09T14:19:29.793Z,22.10
2022-10-09T14:21:58.313Z,22.50
2022-10-09T14:24:25.792Z,22.40
2022-10-09T14:26:56.059Z,22.80
2022-10-09T14:29:26.760Z,23.10
2022-10-09T14:31:54.004Z,23.20
2022-10-09T14:34:22.098Z,23.50
2022-10-09T14:36:49.722Z,23.60
2022-10-09T14:39:20.302Z,23.30
2022-10-09T14:41:55.177Z,23.30
2022-10-09T14:44:22.532Z,23.30
2022-10-09T14:46:49.876Z,23.30
2022-10-09T14:49:17.390Z,23.40
2022-10-09T14:51:45.170Z,23.50
2022-10-09T14:54:13.066Z,23.30
2022-10-09T14:56:40.683Z,23.60
2022-10-09T14:59:08.087Z,23.40
2022-10-09T15:01:35.871Z,22.80
2022-10-09T15:04:05.647Z,22.50
2022-10-09T15:06:36.726Z,22.30
2022-10-09T15:09:06.360Z,22.20
2022-10-09T15:11:35.036Z,21.90
2022-10-09T15:14:06.093Z,21.50
2022-10-09T15:16:33.921Z,20.70
2022-10-09T15:19:10.421Z,20.20
2022-10-09T15:22:03.799Z,19.90
2022-10-09T15:24:33.601Z,19.50
2022-10-09T15:27:13.021Z,19.10
2022-10-09T16:04:41.351Z,16.90
2022-10-09T16:07:13.584Z,16.80
2022-10-09T16:09:41.081Z,16.70
2022-10-09T16:12:14.751Z,16.70
2022-10-09T16:15:01.056Z,16.50
2022-10-09T16:17:35.056Z,16.40
2022-10-09T16:20:02.248Z,16.40
2022-10-09T16:22:30.442Z,16.30
2022-10-09T16:24:57.496Z,16.10
2022-10-09T16:27:25.027Z,16.10
2022-10-09T16:29:52.161Z,16.00
2022-10-09T16:32:19.347Z,15.90
2022-10-09T16:34:49.627Z,15.80
2022-10-09T16:37:16.813Z,15.70
2022-10-09T16:39:45.502Z,15.60
2022-10-09T16:42:12.596Z,15.40
2022-10-09T16:44:39.674Z,15.30
2022-10-09T16:47:06.811Z,15.20
2022-10-09T16:49:34.139Z,15.10
2022-10-09T16:52:01.921Z,15.00
2022-10-09T16:54:31.372Z,14.90
2022-10-09T16:57:12.410Z,14.70
2022-10-09T16:59:45.511Z,14.60
2022-10-09T17:02:13.879Z,14.50
2022-10-09T17:04:41.422Z,14.30
2022-10-09T17:07:10.567Z,14.30
2022-10-09T17:09:47.589Z,14.10
2022-10-09T17:13:22.286Z,14.00
2022-10-09T17:15:35.150Z,13.80
2022-10-09T17:18:02.296Z,13.60
2022-10-09T17:20:29.552Z,13.50
2022-10-09T17:22:56.840Z,13.40
2022-10-09T17:25:24.018Z,13.30
2022-10-09T17:27:51.723Z,13.10
2022-10-09T17:30:19.055Z,13.00
2022-10-09T17:32:46.284Z,12.80
2022-10-09T17:35:13.528Z,12.90
2022-10-09T17:37:40.800Z,12.80
2022-10-09T17:40:08.372Z,12.60
2022-10-09T17:42:35.514Z,12.50
2022-10-09T17:45:02.692Z,12.30
2022-10-09T17:47:30.540Z,12.20
2022-10-09T17:49:57.676Z,12.20
2022-10-09T17:52:24.862Z,12.10
2022-10-09T17:55:25.404Z,12.00
2022-10-09T18:01:47.980Z,11.80
2022-10-09T18:04:16.893Z,11.60
2022-10-09T18:06:44.651Z,11.50
2022-10-09T18:09:17.657Z,11.40
2022-10-09T18:12:25.415Z,11.30
2022-10-09T18:14:52.604Z,11.20
2022-10-09T18:17:19.781Z,11.20
2022-10-09T18:31:55.815Z,10.90
2022-10-09T18:34:23.555Z,10.70
2022-10-09T18:36:52.240Z,10.70
2022-10-09T18:39:21.472Z,10.70
2022-10-09T18:41:59.154Z,10.70
2022-10-09T18:47:38.143Z,10.60
2022-10-09T18:50:09.352Z,10.60
2022-10-09T18:52:42.457Z,10.60
2022-10-09T18:55:22.917Z,10.60
2022-10-09T18:57:50.232Z,10.60
2022-10-09T19:23:38.980Z,10.30
2022-10-09T19:26:21.814Z,10.20
2022-10-09T19:28:49.359Z,10.10
2022-10-09T19:31:16.914Z,10.00
2022-10-09T19:33:44.054Z,10.00
2022-10-09T19:36:13.119Z,10.00
2022-10-09T19:38:40.658Z,10.00
2022-10-09T19:41:10.847Z,9.90
2022-10-09T19:43:38.333Z,10.00
2022-10-09T19:46:11.913Z,9.90
2022-10-09T19:48:39.142Z,9.90
2022-10-09T19:51:12.202Z,9.80
2022-10-09T19:53:39.636Z,9.70
2022-10-09T19:56:16.511Z,9.70
2022-10-09T19:58:45.309Z,9.70
2022-10-09T20:01:15.498Z,9.70
2022-10-09T20:04:18.454Z,9.70
2022-10-09T20:06:52.965Z,9.60
2022-10-09T20:09:21.051Z,9.60
2022-10-09T20:11:48.796Z,9.50
2022-10-09T20:14:15.933Z,9.50
2022-10-09T20:20:18.622Z,9.40
2022-10-09T20:26:43.190Z,9.40
2022-10-09T21:01:00.482Z,9.30
2022-10-09T21:03:27.591Z,9.00
2022-10-09T21:05:54.738Z,9.00
2022-10-09T21:08:24.165Z,9.00
2022-10-09T21:10:51.302Z,9.00
2022-10-09T21:13:18.477Z,9.00
2022-10-09T21:15:48.101Z,9.00
2022-10-09T21:18:16.587Z,9.00
2022-10-09T21:20:45.796Z,9.00
2022-10-09T21:23:14.782Z,9.00
2022-10-09T21:25:53.332Z,9.00
2022-10-09T21:28:21.990Z,9.00
2022-10-09T21:30:49.254Z,9.00
2022-10-09T21:33:17.115Z,9.00
2022-10-09T21:35:47.331Z,9.00
2022-10-09T21:38:17.674Z,8.90
2022-10-09T21:40:45.894Z,8.90
2022-10-09T21:43:13.327Z,8.80
2022-10-09T21:45:40.842Z,8.80
2022-10-09T21:48:08.469Z,8.80
2022-10-09T21:50:36.913Z,8.80
2022-10-09T21:53:04.343Z,8.80
2022-10-09T21:55:31.642Z,8.80
2022-10-09T21:57:58.867Z,8.80
2022-10-09T22:00:25.992Z,8.80
2022-10-09T22:02:53.457Z,8.80
2022-10-09T22:05:20.657Z,8.90
2022-10-09T22:07:47.810Z,8.80
2022-10-09T22:10:14.871Z,8.80
2022-10-09T22:12:41.965Z,8.80
2022-10-09T22:15:09.629Z,8.80
2022-10-09T22:17:36.764Z,8.80
2022-10-09T22:20:04.599Z,8.90
2022-10-09T22:22:31.944Z,8.90
2022-10-09T22:25:00.462Z,8.90
2022-10-09T22:27:28.061Z,8.90
2022-10-09T22:29:55.188Z,8.90
2022-10-09T22:32:22.325Z,9.00
2022-10-09T22:34:51.509Z,9.00
2022-10-09T22:37:18.599Z,9.00
2022-10-09T22:39:45.785Z,9.00
2022-10-09T22:42:12.853Z,9.00
2022-10-09T22:44:40.032Z,9.00
2022-10-09T22:47:07.081Z,9.00
2022-10-09T22:49:34.240Z,9.00
2022-10-09T22:52:01.645Z,9.00
2022-10-09T22:54:28.734Z,9.00
2022-10-09T22:56:55.901Z,9.00
2022-10-09T22:59:22.990Z,9.00
2022-10-09T23:01:53.727Z,9.00
2022-10-09T23:04:22.393Z,9.00
2022-10-09T23:06:55.098Z,9.00
2022-10-09T23:09:24.537Z,9.00
2022-10-09T23:11:51.892Z,8.90
2022-10-09T23:14:19.293Z,8.90
2022-10-09T23:16:46.738Z,8.90
2022-10-09T23:19:13.851Z,8.90
2022-10-09T23:21:45.098Z,8.90
2022-10-09T23:24:15.490Z,8.90
2022-10-09T23:26:42.633Z,8.90
2022-10-09T23:29:15.317Z,8.90
2022-10-09T23:31:42.438Z,8.90
2022-10-09T23:34:09.755Z,8.80
2022-10-09T23:36:36.890Z,8.80
2022-10-09T23:39:05.396Z,8.80
2022-10-09T23:41:33.610Z,8.80
2022-10-09T23:44:00.725Z,8.80
2022-10-09T23:46:32.900Z,8.80
2022-10-09T23:49:00.617Z,8.80
2022-10-09T23:51:28.514Z,8.80
2022-10-09T23:53:56.643Z,8.80
2022-10-09T23:56:31.303Z,8.80
2022-10-09T23:58:59.952Z,8.80
